createdAt,value
2023-05-22T00:01:30.172Z,15.90
2023-05-22T00:03:57.336Z,20.48
2023-05-22T00:06:24.720Z,20.48
2023-05-22T00:08:51.912Z,17.58
2023-05-22T00:11:19.091Z,16.92
2023-05-22T00:13:46.583Z,18.60
2023-05-22T00:16:13.756Z,19.27
2023-05-22T00:18:44.976Z,18.00
2023-05-22T00:21:12.156Z,18.08
2023-05-22T00:23:39.288Z,19.10
2023-05-22T00:26:06.356Z,17.73
2023-05-22T00:28:33.564Z,20.40
2023-05-22T00:31:00.770Z,19.20
2023-05-22T00:33:27.924Z,23.40
2023-05-22T00:35:55.056Z,19.65
2023-05-22T00:38:48.597Z,20.90
2023-05-22T00:41:15.799Z,20.25
2023-05-22T00:43:42.838Z,19.92
2023-05-22T00:46:10.130Z,18.70
2023-05-22T00:48:37.218Z,21.67
2023-05-22T00:51:05.052Z,18.25
2023-05-22T00:53:32.183Z,19.10
2023-05-22T00:56:00.045Z,18.85
2023-05-22T00:58:27.689Z,21.02
2023-05-22T01:00:55.836Z,18.65
2023-05-22T01:03:27.213Z,19.63
2023-05-22T01:05:55.875Z,26.08
2023-05-22T01:08:23.622Z,19.13
2023-05-22T01:11:02.274Z,21.85
2023-05-22T01:13:47.028Z,20.10
2023-05-22T01:16:47.132Z,19.35
2023-05-22T01:19:47.782Z,17.65
2023-05-22T01:22:43.458Z,18.80
2023-05-22T01:25:36.139Z,17.52
2023-05-22T01:28:14.056Z,21.40
2023-05-22T01:31:11.358Z,20.83
2023-05-22T01:33:49.017Z,18.50
2023-05-22T01:36:22.572Z,17.65
2023-05-22T01:38:51.508Z,18.90
2023-05-22T01:41:19.510Z,19.67
2023-05-22T01:43:46.843Z,20.58
2023-05-22T01:46:14.350Z,17.23
2023-05-22T01:48:41.461Z,20.42
2023-05-22T01:51:20.479Z,17.60
2023-05-22T01:54:18.359Z,19.38
2023-05-22T01:56:57.498Z,21.25
2023-05-22T01:59:34.675Z,19.85
2023-05-22T02:02:06.645Z,18.80
2023-05-22T02:04:38.971Z,19.60
2023-05-22T02:07:07.719Z,20.45
2023-05-22T02:09:36.347Z,19.02
2023-05-22T02:12:03.993Z,19.05
2023-05-22T02:14:31.739Z,20.25
2023-05-22T02:17:02.260Z,20.05
2023-05-22T02:19:29.460Z,17.98
2023-05-22T02:21:56.689Z,18.80
2023-05-22T02:24:23.887Z,18.30
2023-05-22T02:26:51.469Z,17.95
2023-05-22T02:29:18.660Z,18.73
2023-05-22T02:31:45.886Z,18.58
2023-05-22T02:34:13.004Z,22.17
2023-05-22T02:36:41.147Z,20.30
2023-05-22T02:39:09.015Z,20.38
2023-05-22T02:41:36.075Z,20.20
2023-05-22T02:44:03.241Z,21.88
2023-05-22T02:46:30.333Z,22.00
2023-05-22T02:48:57.454Z,19.63
2023-05-22T02:51:24.601Z,19.83
2023-05-22T02:53:51.990Z,23.73
2023-05-22T02:56:19.206Z,18.92
2023-05-22T02:58:46.305Z,18.55
2023-05-22T03:01:13.403Z,21.83
2023-05-22T03:03:40.661Z,20.67
2023-05-22T03:06:09.030Z,21.15
2023-05-22T03:08:38.545Z,21.15
2023-05-22T03:11:05.608Z,19.27
2023-05-22T03:13:32.682Z,21.15
2023-05-22T03:16:00.021Z,20.15
2023-05-22T03:18:27.623Z,26.67
2023-05-22T03:20:55.012Z,21.30
2023-05-22T03:23:22.126Z,24.52
2023-05-22T03:25:49.357Z,23.90
2023-05-22T03:28:16.804Z,24.38
2023-05-22T03:30:43.968Z,24.63
2023-05-22T03:33:11.921Z,22.23
2023-05-22T03:35:39.152Z,24.02
2023-05-22T03:38:06.229Z,23.88
2023-05-22T03:40:33.248Z,25.00
2023-05-22T03:43:00.383Z,27.27
2023-05-22T03:45:27.496Z,24.50
2023-05-22T03:47:54.686Z,25.15
2023-05-22T03:50:21.805Z,22.13
2023-05-22T03:52:48.922Z,28.33
2023-05-22T03:55:16.528Z,27.90
2023-05-22T03:57:43.608Z,27.67
2023-05-22T04:00:12.011Z,26.92
2023-05-22T04:02:39.299Z,28.55
2023-05-22T04:05:10.246Z,26.85
2023-05-22T04:07:37.408Z,31.38
2023-05-22T04:10:05.698Z,27.73
2023-05-22T04:12:32.830Z,31.02
2023-05-22T04:15:00.018Z,31.63
2023-05-22T04:17:32.956Z,33.58
2023-05-22T04:20:00.781Z,33.08
2023-05-22T04:22:32.156Z,29.40
2023-05-22T04:24:59.431Z,29.67
2023-05-22T04:27:27.248Z,28.88
2023-05-22T04:29:55.054Z,31.25
2023-05-22T04:32:23.926Z,28.77
2023-05-22T04:34:51.237Z,33.50
2023-05-22T04:37:20.530Z,34.63
2023-05-22T04:39:48.400Z,38.60
2023-05-22T04:42:16.182Z,43.78
2023-05-22T04:44:43.789Z,73.30
2023-05-22T04:47:14.684Z,60.10
2023-05-22T04:49:45.849Z,69.55
2023-05-22T04:52:12.910Z,55.88
2023-05-22T04:54:40.076Z,65.65
2023-05-22T04:57:07.222Z,87.05
2023-05-22T04:59:40.288Z,55.92
2023-05-22T05:02:07.664Z,57.92
2023-05-22T05:04:35.227Z,53.40
2023-05-22T05:07:03.713Z,47.92
2023-05-22T05:09:30.987Z,48.60
2023-05-22T05:11:58.486Z,48.60
2023-05-22T05:14:26.255Z,44.28
2023-05-22T05:16:53.635Z,46.05
2023-05-22T05:19:21.686Z,45.70
2023-05-22T05:21:52.586Z,48.35
2023-05-22T05:24:19.781Z,43.05
2023-05-22T05:26:46.865Z,51.85
2023-05-22T05:29:13.976Z,56.67
2023-05-22T05:31:41.225Z,49.22
2023-05-22T05:34:08.371Z,68.05
2023-05-22T05:36:35.829Z,70.25
2023-05-22T05:39:02.977Z,101.35
2023-05-22T05:41:30.101Z,58.63
2023-05-22T05:44:00.239Z,45.17
2023-05-22T05:46:27.497Z,50.17
2023-05-22T05:48:54.639Z,42.17
2023-05-22T05:51:22.397Z,55.85
2023-05-22T05:53:49.648Z,50.28
2023-05-22T05:56:16.814Z,49.53
2023-05-22T05:58:43.911Z,44.83
2023-05-22T06:01:12.199Z,45.83
2023-05-22T06:03:39.508Z,45.78
2023-05-22T06:06:07.483Z,45.75
2023-05-22T06:08:34.696Z,49.00
2023-05-22T06:11:02.425Z,43.65
2023-05-22T06:13:29.648Z,45.55
2023-05-22T06:15:58.782Z,52.80
2023-05-22T06:18:27.659Z,54.53
2023-05-22T06:20:54.727Z,45.45
2023-05-22T06:23:21.847Z,55.67
2023-05-22T06:25:49.050Z,51.47
2023-05-22T06:28:16.214Z,49.10
2023-05-22T06:30:43.645Z,52.55
2023-05-22T06:33:10.967Z,58.60
2023-05-22T06:35:38.641Z,56.35
2023-05-22T06:38:05.819Z,56.88
2023-05-22T06:40:32.910Z,61.30
2023-05-22T06:42:59.995Z,49.35
2023-05-22T06:45:27.176Z,54.38
2023-05-22T06:47:55.214Z,54.75
2023-05-22T06:50:22.715Z,59.70
2023-05-22T06:52:49.968Z,57.17
2023-05-22T06:55:17.347Z,63.38
2023-05-22T06:57:44.428Z,61.35
2023-05-22T07:00:12.961Z,62.33
2023-05-22T07:02:40.254Z,59.65
2023-05-22T07:05:07.695Z,64.35
2023-05-22T07:07:34.824Z,66.32
2023-05-22T07:10:02.131Z,57.65
2023-05-22T07:12:29.853Z,72.05
2023-05-22T07:14:58.025Z,60.38
2023-05-22T07:17:25.169Z,68.32
2023-05-22T07:19:52.319Z,60.45
2023-05-22T07:22:19.411Z,60.47
2023-05-22T07:24:47.576Z,62.00
2023-05-22T07:27:15.092Z,59.60
2023-05-22T07:29:42.233Z,59.35
2023-05-22T07:32:09.394Z,64.20
2023-05-22T07:34:36.523Z,63.53
2023-05-22T07:37:09.216Z,62.40
2023-05-22T07:39:36.388Z,71.43
2023-05-22T07:42:04.997Z,68.35
2023-05-22T07:44:32.120Z,65.82
2023-05-22T07:46:59.745Z,70.28
2023-05-22T07:49:26.950Z,65.47
2023-05-22T07:51:54.077Z,66.88
2023-05-22T07:54:21.261Z,62.53
2023-05-22T07:56:48.409Z,59.67
2023-05-22T07:59:16.209Z,59.38
2023-05-22T08:01:43.376Z,57.00
2023-05-22T08:04:10.880Z,61.08
2023-05-22T08:06:39.729Z,62.10
2023-05-22T08:09:06.922Z,66.20
2023-05-22T08:11:34.314Z,64.38
2023-05-22T08:14:01.670Z,60.83
2023-05-22T08:16:28.964Z,66.25
2023-05-22T08:18:56.250Z,60.13
2023-05-22T08:21:23.345Z,62.25
2023-05-22T08:23:50.579Z,60.95
2023-05-22T08:26:17.750Z,64.82
2023-05-22T08:28:45.092Z,65.78
2023-05-22T08:31:12.902Z,70.13
2023-05-22T08:33:40.269Z,67.13
2023-05-22T08:36:07.420Z,75.45
2023-05-22T08:38:34.845Z,69.28
2023-05-22T08:41:01.937Z,63.50
2023-05-22T08:43:29.424Z,70.43
2023-05-22T08:46:08.851Z,72.68
2023-05-22T08:48:36.403Z,63.65
2023-05-22T08:51:05.278Z,66.60
2023-05-22T08:53:37.285Z,66.63
2023-05-22T08:56:07.200Z,73.05
2023-05-22T08:58:36.330Z,71.25
2023-05-22T09:01:07.555Z,68.38
2023-05-22T09:03:37.054Z,74.18
2023-05-22T09:06:04.766Z,69.13
2023-05-22T09:08:31.999Z,64.10
2023-05-22T09:10:59.081Z,71.60
2023-05-22T09:13:28.266Z,75.00
2023-05-22T09:16:16.110Z,76.28
2023-05-22T09:18:43.337Z,75.68
2023-05-22T09:21:25.918Z,85.82
2023-05-22T09:24:01.745Z,80.18
2023-05-22T09:26:29.651Z,87.70
2023-05-22T09:28:59.156Z,83.82
2023-05-22T09:31:26.396Z,93.72
2023-05-22T09:33:56.094Z,90.35
2023-05-22T09:36:30.195Z,91.78
2023-05-22T09:38:59.870Z,95.00
2023-05-22T09:41:28.302Z,90.80
2023-05-22T09:43:55.737Z,94.57
2023-05-22T09:46:22.991Z,89.72
2023-05-22T09:48:53.591Z,86.90
2023-05-22T09:51:29.533Z,90.38
2023-05-22T09:54:03.637Z,86.38
2023-05-22T09:56:39.043Z,81.60
2023-05-22T09:59:09.610Z,83.40
2023-05-22T10:01:40.080Z,73.00
2023-05-22T10:04:11.087Z,79.78
2023-05-22T10:06:39.582Z,69.32
2023-05-22T10:09:18.275Z,66.95
2023-05-22T10:11:47.612Z,72.70
2023-05-22T10:14:16.009Z,75.07
2023-05-22T10:16:45.100Z,71.55
2023-05-22T10:19:13.284Z,71.22
2023-05-22T10:21:42.489Z,68.25
2023-05-22T10:24:11.273Z,73.95
2023-05-22T10:26:39.292Z,73.85
2023-05-22T10:29:35.753Z,72.10
2023-05-22T10:32:13.772Z,70.63
2023-05-22T10:35:11.287Z,68.28
2023-05-22T10:38:16.980Z,70.28
2023-05-22T10:40:46.848Z,77.57
2023-05-22T10:43:14.475Z,70.75
2023-05-22T10:48:11.971Z,73.50
2023-05-22T10:50:40.200Z,69.82
2023-05-22T10:53:28.158Z,74.55
2023-05-22T10:55:57.081Z,77.03
2023-05-22T10:58:31.990Z,72.53
2023-05-22T11:01:10.731Z,69.28
2023-05-22T11:04:10.685Z,70.05
2023-05-22T11:07:05.692Z,62.72
2023-05-22T11:09:34.745Z,66.45
2023-05-22T11:12:16.840Z,64.15
2023-05-22T11:15:00.062Z,57.55
2023-05-22T11:17:32.335Z,56.13
2023-05-22T11:20:24.935Z,51.20
2023-05-22T11:23:01.292Z,49.70
2023-05-22T11:25:29.233Z,49.67
2023-05-22T11:27:57.868Z,43.50
2023-05-22T11:30:28.756Z,46.22
2023-05-22T11:32:57.584Z,48.65
2023-05-22T11:35:25.079Z,46.45
2023-05-22T11:37:53.697Z,49.60
2023-05-22T11:40:24.653Z,49.97
2023-05-22T11:42:52.740Z,48.20
2023-05-22T11:45:21.884Z,46.05
2023-05-22T11:47:49.931Z,51.90
2023-05-22T11:50:25.927Z,45.08
2023-05-22T11:53:02.970Z,44.17
2023-05-22T11:55:30.123Z,52.35
2023-05-22T11:57:58.758Z,47.20
2023-05-22T12:00:26.616Z,47.58
2023-05-22T12:02:54.714Z,46.80
2023-05-22T12:05:22.313Z,44.55
2023-05-22T12:07:49.904Z,52.35
2023-05-22T12:10:17.002Z,50.83
2023-05-22T12:12:44.508Z,52.08
2023-05-22T12:15:11.964Z,49.60
2023-05-22T12:17:40.206Z,44.33
2023-05-22T12:20:07.669Z,45.65
2023-05-22T12:22:42.509Z,43.17
2023-05-22T12:25:20.408Z,44.85
2023-05-22T12:27:47.729Z,43.75
2023-05-22T12:30:15.588Z,53.55
2023-05-22T12:32:53.162Z,46.40
2023-05-22T12:35:20.282Z,40.97
2023-05-22T12:37:52.139Z,39.95
2023-05-22T12:40:20.681Z,41.53
2023-05-22T12:42:49.677Z,39.35
2023-05-22T12:45:18.218Z,39.65
2023-05-22T12:47:45.531Z,39.80
2023-05-22T12:50:12.816Z,43.50
2023-05-22T12:52:40.022Z,36.90
2023-05-22T12:55:07.759Z,44.63
2023-05-22T12:57:35.036Z,34.78
2023-05-22T13:00:02.295Z,47.17
2023-05-22T13:02:29.546Z,37.28
2023-05-22T13:04:56.679Z,44.45
2023-05-22T13:07:23.765Z,41.40
2023-05-22T13:09:50.875Z,39.20
2023-05-22T13:12:19.405Z,43.72
2023-05-22T13:14:46.739Z,50.72
2023-05-22T13:17:13.998Z,40.42
2023-05-22T13:19:41.070Z,41.65
2023-05-22T13:22:09.077Z,42.58
2023-05-22T13:24:36.341Z,36.50
2023-05-22T13:27:03.456Z,43.25
2023-05-22T13:29:30.726Z,43.17
2023-05-22T13:31:57.868Z,37.30
2023-05-22T13:34:25.134Z,45.58
2023-05-22T13:36:52.490Z,47.35
2023-05-22T13:39:19.653Z,38.88
2023-05-22T13:41:46.831Z,45.55
2023-05-22T13:44:14.122Z,40.92
2023-05-22T13:46:41.345Z,40.88
2023-05-22T13:49:08.499Z,42.05
2023-05-22T13:51:35.925Z,39.25
2023-05-22T13:54:03.386Z,44.55
2023-05-22T13:56:30.816Z,44.30
2023-05-22T13:58:57.992Z,40.78
2023-05-22T14:01:25.507Z,45.47
2023-05-22T14:03:52.687Z,42.03
2023-05-22T14:06:19.890Z,40.58
2023-05-22T14:08:46.932Z,38.25
2023-05-22T14:11:14.063Z,39.97
2023-05-22T14:13:41.102Z,42.80
2023-05-22T14:16:08.293Z,44.80
2023-05-22T14:18:35.495Z,41.10
2023-05-22T14:21:04.632Z,40.53
2023-05-22T14:23:32.129Z,46.85
2023-05-22T14:25:59.253Z,43.75
2023-05-22T14:28:26.832Z,43.22
2023-05-22T14:30:53.980Z,39.30
2023-05-22T14:33:21.131Z,40.58
2023-05-22T14:35:48.712Z,44.80
2023-05-22T14:38:15.812Z,44.72
2023-05-22T14:40:43.069Z,38.88
2023-05-22T14:43:10.495Z,42.30
2023-05-22T14:45:37.745Z,41.08
2023-05-22T14:48:05.140Z,43.00
2023-05-22T14:50:32.429Z,43.67
2023-05-22T14:52:59.503Z,42.50
2023-05-22T14:55:28.300Z,42.03
2023-05-22T14:57:56.414Z,38.85
2023-05-22T15:00:23.558Z,39.67
2023-05-22T15:02:50.785Z,44.63
2023-05-22T15:05:17.960Z,44.50
2023-05-22T15:07:47.187Z,46.25
2023-05-22T15:10:15.643Z,51.70
2023-05-22T15:12:42.784Z,42.63
2023-05-22T15:15:10.245Z,47.33
2023-05-22T15:17:37.395Z,48.90
2023-05-22T15:20:05.777Z,51.78
2023-05-22T15:22:32.821Z,48.08
2023-05-22T15:25:05.570Z,52.90
2023-05-22T15:27:35.253Z,49.77
2023-05-22T15:30:03.612Z,53.63
2023-05-22T15:32:32.597Z,51.50
2023-05-22T15:34:59.742Z,51.67
2023-05-22T15:37:28.621Z,49.88
2023-05-22T15:39:56.747Z,52.05
2023-05-22T15:42:23.794Z,48.42
2023-05-22T15:44:50.927Z,50.45
2023-05-22T15:47:18.845Z,48.15
2023-05-22T15:49:45.982Z,52.60
2023-05-22T15:52:13.056Z,52.25
2023-05-22T15:54:40.220Z,50.50
2023-05-22T15:57:07.325Z,48.75
2023-05-22T15:59:34.497Z,55.47
2023-05-22T16:02:01.699Z,49.72
2023-05-22T16:04:28.798Z,57.50
2023-05-22T16:06:55.928Z,60.35
2023-05-22T16:09:22.983Z,55.00
2023-05-22T16:11:50.066Z,58.58
2023-05-22T16:14:17.247Z,50.50
2023-05-22T16:16:44.319Z,59.60
2023-05-22T16:19:11.777Z,55.75
2023-05-22T16:21:39.024Z,56.65
2023-05-22T16:24:07.257Z,59.85
2023-05-22T16:26:34.410Z,53.50
2023-05-22T16:29:01.496Z,61.30
2023-05-22T16:31:28.988Z,64.85
2023-05-22T16:33:56.236Z,61.08
2023-05-22T16:36:25.200Z,63.20
2023-05-22T16:38:54.119Z,64.85
2023-05-22T16:41:21.251Z,71.20
2023-05-22T16:43:48.407Z,61.00
2023-05-22T16:46:15.867Z,62.05
2023-05-22T16:48:43.023Z,59.33
2023-05-22T16:51:11.509Z,68.63
2023-05-22T16:53:40.201Z,75.80
2023-05-22T16:56:07.862Z,63.53
2023-05-22T16:58:34.902Z,67.88
2023-05-22T17:01:02.307Z,65.03
2023-05-22T17:03:29.529Z,64.15
2023-05-22T17:05:56.827Z,66.93
2023-05-22T17:08:24.015Z,66.43
2023-05-22T17:10:51.127Z,65.63
2023-05-22T17:13:21.117Z,65.57
2023-05-22T17:15:51.616Z,59.72
2023-05-22T17:18:22.512Z,63.75
2023-05-22T17:20:51.092Z,66.43
2023-05-22T17:23:18.500Z,67.47
2023-05-22T17:25:46.944Z,63.22
2023-05-22T17:28:14.960Z,66.63
2023-05-22T17:30:43.301Z,65.20
2023-05-22T17:33:11.219Z,63.17
2023-05-22T17:35:38.539Z,61.78
2023-05-22T17:38:07.969Z,60.30
2023-05-22T17:40:44.703Z,65.22
2023-05-22T17:43:12.422Z,66.00
2023-05-22T17:45:40.340Z,72.97
2023-05-22T17:48:08.314Z,69.72
2023-05-22T17:50:35.629Z,70.30
2023-05-22T17:53:03.146Z,70.88
2023-05-22T17:55:30.222Z,68.90
2023-05-22T17:57:57.992Z,74.05
2023-05-22T18:00:25.054Z,69.13
2023-05-22T18:02:52.216Z,70.60
2023-05-22T18:05:19.431Z,66.28
2023-05-22T18:07:46.501Z,67.20
2023-05-22T18:10:13.688Z,70.43
2023-05-22T18:12:41.067Z,64.90
2023-05-22T18:15:10.837Z,64.00
2023-05-22T18:17:45.041Z,61.78
2023-05-22T18:20:12.584Z,60.67
2023-05-22T18:22:40.169Z,63.95
2023-05-22T18:25:08.080Z,55.63
2023-05-22T18:27:36.376Z,62.28
2023-05-22T18:30:05.324Z,62.80
2023-05-22T18:32:32.612Z,57.70
2023-05-22T18:35:00.460Z,54.25
2023-05-22T18:37:28.677Z,54.22
2023-05-22T18:39:55.813Z,57.42
2023-05-22T18:42:22.976Z,56.95
2023-05-22T18:44:50.766Z,54.75
2023-05-22T18:47:18.166Z,59.05
2023-05-22T18:49:45.284Z,53.00
2023-05-22T18:52:12.611Z,47.55
2023-05-22T18:54:39.720Z,46.47
2023-05-22T18:57:07.120Z,48.90
2023-05-22T18:59:34.450Z,51.50
2023-05-22T19:02:03.026Z,37.95
2023-05-22T19:04:30.314Z,41.13
2023-05-22T19:06:57.821Z,32.78
2023-05-22T19:09:27.742Z,28.10
2023-05-22T19:11:54.845Z,37.92
2023-05-22T19:14:22.303Z,22.58
2023-05-22T19:16:49.563Z,20.48
2023-05-22T19:19:16.894Z,21.80
2023-05-22T19:21:44.034Z,20.88
2023-05-22T19:24:11.124Z,21.02
2023-05-22T19:26:38.223Z,16.67
2023-05-22T19:29:05.846Z,21.55
2023-05-22T19:31:33.018Z,16.42
2023-05-22T19:34:00.176Z,18.35
2023-05-22T19:36:27.399Z,15.68
2023-05-22T19:38:54.496Z,16.50
2023-05-22T19:41:24.063Z,17.45
2023-05-22T19:43:52.017Z,18.95
2023-05-22T19:46:19.134Z,18.50
2023-05-22T19:48:46.264Z,17.25
2023-05-22T19:51:13.499Z,21.45
2023-05-22T19:53:41.786Z,18.30
2023-05-22T19:56:08.896Z,17.95
2023-05-22T19:58:36.022Z,21.85
2023-05-22T20:01:06.039Z,17.60
2023-05-22T20:03:33.208Z,18.20
2023-05-22T20:06:00.644Z,22.60
2023-05-22T20:08:28.643Z,18.67
2023-05-22T20:10:55.891Z,18.83
2023-05-22T20:13:22.987Z,18.17
2023-05-22T20:15:53.463Z,17.42
2023-05-22T20:18:22.265Z,18.95
2023-05-22T20:20:49.711Z,18.35
2023-05-22T20:23:16.920Z,18.55
2023-05-22T20:25:44.010Z,18.90
2023-05-22T20:28:11.175Z,19.73
2023-05-22T20:30:38.314Z,25.90
2023-05-22T20:33:06.428Z,24.75
2023-05-22T20:35:34.024Z,23.45
2023-05-22T20:38:04.483Z,23.77
2023-05-22T20:40:35.002Z,23.02
2023-05-22T20:43:02.830Z,24.58
2023-05-22T20:45:30.821Z,21.75
2023-05-22T20:47:58.110Z,22.85
2023-05-22T20:50:25.240Z,26.85
2023-05-22T20:52:52.978Z,23.25
2023-05-22T20:55:20.129Z,26.83
2023-05-22T20:57:47.197Z,27.73
2023-05-22T21:00:14.915Z,29.75
2023-05-22T21:02:42.208Z,33.20
2023-05-22T21:05:09.840Z,30.48
2023-05-22T21:07:36.956Z,31.00
2023-05-22T21:10:04.994Z,29.02
2023-05-22T21:12:32.079Z,29.75
2023-05-22T21:14:59.161Z,30.17
2023-05-22T21:17:26.304Z,27.95
2023-05-22T21:19:53.754Z,29.60
2023-05-22T21:22:21.064Z,25.27
2023-05-22T21:24:48.567Z,27.52
2023-05-22T21:27:17.944Z,27.42
2023-05-22T21:29:45.295Z,23.73
2023-05-22T21:32:12.320Z,25.10
2023-05-22T21:34:39.404Z,22.33
2023-05-22T21:37:06.570Z,23.58
2023-05-22T21:39:33.657Z,22.17
2023-05-22T21:42:00.743Z,22.50
2023-05-22T21:44:27.880Z,20.23
2023-05-22T21:46:56.065Z,19.80
2023-05-22T21:49:23.248Z,20.45
2023-05-22T21:51:50.317Z,19.70
2023-05-22T21:54:17.353Z,18.55
2023-05-22T21:56:44.368Z,18.15
2023-05-22T21:59:11.839Z,16.00
2023-05-22T22:01:38.994Z,15.82
2023-05-22T22:04:06.273Z,18.63
2023-05-22T22:06:33.377Z,14.43
2023-05-22T22:09:00.545Z,16.90
2023-05-22T22:11:27.637Z,17.85
2023-05-22T22:13:55.152Z,15.07
2023-05-22T22:16:22.463Z,17.98
2023-05-22T22:18:50.559Z,19.05
2023-05-22T22:21:17.805Z,15.65
2023-05-22T22:23:44.940Z,17.33
2023-05-22T22:26:14.585Z,20.08
2023-05-22T22:28:41.627Z,24.00
2023-05-22T22:31:08.761Z,21.48
2023-05-22T22:33:36.011Z,19.48
2023-05-22T22:36:03.187Z,19.48
2023-05-22T22:38:33.021Z,19.42
2023-05-22T22:41:00.781Z,17.70
2023-05-22T22:43:27.814Z,17.20
2023-05-22T22:45:56.028Z,18.48
2023-05-22T22:48:23.456Z,19.58
2023-05-22T22:50:52.594Z,17.70
2023-05-22T22:53:19.982Z,19.90
2023-05-22T22:55:56.212Z,19.20
2023-05-22T22:58:23.472Z,18.08
2023-05-22T23:00:50.790Z,15.93
2023-05-22T23:03:17.869Z,18.85
2023-05-22T23:05:45.447Z,20.45
2023-05-22T23:08:12.980Z,17.35
2023-05-22T23:10:40.088Z,17.95
2023-05-22T23:13:07.181Z,20.77
2023-05-22T23:15:34.380Z,21.08
2023-05-22T23:18:01.574Z,21.45
2023-05-22T23:20:28.698Z,18.85
2023-05-22T23:22:56.120Z,21.92
2023-05-22T23:25:23.392Z,18.77
2023-05-22T23:27:50.750Z,19.88
2023-05-22T23:30:17.972Z,16.63
2023-05-22T23:32:45.029Z,15.45
2023-05-22T23:35:12.333Z,14.93
2023-05-22T23:37:39.361Z,15.02
2023-05-22T23:40:07.892Z,18.73
2023-05-22T23:42:36.328Z,15.98
2023-05-22T23:45:04.370Z,14.27
2023-05-22T23:47:31.850Z,14.23
2023-05-22T23:49:59.832Z,17.67
2023-05-22T23:52:27.260Z,16.20
2023-05-22T23:54:54.510Z,18.33
2023-05-22T23:57:21.717Z,14.07
2023-05-22T23:59:48.939Z,15.77
